Time;durP1;ratioP1;P1;durP2;ratioP2;P2;SDS_P1;SDS_P2;PMS_P1;PMS_P2;Temp;Humidity;BMP_temperature;BMP_pressure;BME280_temperature;BME280_humidity;BME280_pressure;Samples;Min_cycle;Max_cycle;Signal;HPM_P1;HPM_P2
2021/11/30 00:01:48;;;;;;;28.50;25.57;;;3.50;99.90;;;;;;5078394;28;20463;-70
2021/11/30 00:04:17;;;;;;;26.50;24.17;;;3.50;99.90;;;;;;5078616;28;20484;-70
2021/11/30 00:06:45;;;;;;;23.63;21.63;;;3.50;99.90;;;;;;5076990;28;20462;-70
2021/11/30 00:10:43;;;;;;;19.63;17.70;;;3.50;99.90;;;;;;5080310;28;20462;-70
2021/11/30 00:12:10;;;;;;;26.07;23.27;;;3.50;99.90;;;;;;5083388;28;20445;-70
2021/11/30 00:14:39;;;;;;;31.37;25.47;;;3.50;99.90;;;;;;5078697;28;20463;-70
2021/11/30 00:17:07;;;;;;;25.47;23.07;;;3.50;99.90;;;;;;5080820;28;20457;-70
2021/11/30 00:19:34;;;;;;;27.67;24.67;;;3.40;99.90;;;;;;5075851;28;20471;-70
2021/11/30 00:22:01;;;;;;;30.10;25.63;;;3.50;99.90;;;;;;5081709;28;20536;-70
2021/11/30 00:24:29;;;;;;;27.60;24.67;;;3.50;99.90;;;;;;5075868;28;20477;-70
2021/11/30 00:26:57;;;;;;;38.93;25.87;;;3.50;99.90;;;;;;5079485;28;20523;-70
2021/11/30 00:29:24;;;;;;;28.80;24.57;;;3.50;99.90;;;;;;5074337;28;20489;-70
2021/11/30 00:31:53;;;;;;;27.70;21.90;;;3.50;99.90;;;;;;5083221;28;20460;-70
2021/11/30 00:34:20;;;;;;;29.30;24.00;;;3.50;99.90;;;;;;5082162;28;20474;-71
2021/11/30 00:36:48;;;;;;;33.27;24.97;;;3.50;99.90;;;;;;5079947;28;20494;-70
2021/11/30 00:39:15;;;;;;;26.63;22.60;;;3.50;99.90;;;;;;5077758;28;21049;-70
2021/11/30 00:41:47;;;;;;;32.33;23.13;;;3.50;99.90;;;;;;5076045;28;20463;-70
2021/11/30 00:44:16;;;;;;;25.80;22.93;;;3.50;99.90;;;;;;5075825;28;20514;-70
2021/11/30 00:46:43;;;;;;;37.13;23.27;;;3.60;99.90;;;;;;5076865;28;20459;-70
2021/11/30 00:49:12;;;;;;;25.57;21.80;;;3.60;99.90;;;;;;5084755;28;20497;-70
2021/11/30 00:51:40;;;;;;;23.43;20.90;;;3.60;99.90;;;;;;5079188;28;20457;-70
2021/11/30 00:54:09;;;;;;;33.67;22.67;;;3.50;99.90;;;;;;5078342;28;20469;-70
2021/11/30 00:56:36;;;;;;;22.30;20.10;;;3.60;99.90;;;;;;5078310;28;20465;-70
2021/11/30 00:59:03;;;;;;;22.80;20.57;;;3.60;99.90;;;;;;5085677;28;20458;-70
2021/11/30 01:01:31;;;;;;;30.17;22.20;;;3.60;99.90;;;;;;5076893;28;20466;-70
2021/11/30 01:03:58;;;;;;;26.97;20.60;;;3.60;99.90;;;;;;5084493;28;20949;-70
2021/11/30 01:06:27;;;;;;;24.30;21.70;;;3.60;99.90;;;;;;5076147;28;20470;-70
2021/11/30 01:08:54;;;;;;;24.00;21.40;;;3.60;99.90;;;;;;5083367;28;20494;-70
2021/11/30 01:11:21;;;;;;;25.40;22.70;;;3.60;99.90;;;;;;5076900;28;20955;-70
2021/11/30 01:13:49;;;;;;;26.30;20.60;;;3.60;99.90;;;;;;5076298;28;20463;-70
2021/11/30 01:16:16;;;;;;;31.10;22.70;;;3.60;99.90;;;;;;5082296;28;20842;-70
2021/11/30 01:18:43;;;;;;;23.73;20.40;;;3.70;99.90;;;;;;5083195;28;20465;-70
2021/11/30 01:21:10;;;;;;;23.33;20.87;;;3.70;99.90;;;;;;5078427;28;20520;-70
2021/11/30 01:23:38;;;;;;;27.63;21.53;;;3.60;99.90;;;;;;5083648;28;20490;-70
2021/11/30 01:26:05;;;;;;;23.57;20.50;;;3.70;99.90;;;;;;5080189;28;20557;-70
2021/11/30 01:28:32;;;;;;;20.53;18.90;;;3.70;99.90;;;;;;5083604;28;20490;-70
2021/11/30 01:30:59;;;;;;;24.93;21.00;;;3.70;99.90;;;;;;5088225;28;20454;-71
2021/11/30 01:33:26;;;;;;;19.13;17.30;;;3.70;99.90;;;;;;5070528;28;20577;-70
2021/11/30 01:35:54;;;;;;;21.37;19.37;;;3.80;99.90;;;;;;5083581;28;20474;-70
2021/11/30 01:38:21;;;;;;;21.13;19.27;;;3.80;99.90;;;;;;5075304;28;20466;-70
2021/11/30 01:40:50;;;;;;;19.87;18.50;;;3.80;99.90;;;;;;5080190;28;20499;-70
2021/11/30 01:43:20;;;;;;;21.20;19.50;;;3.80;99.90;;;;;;5081578;28;20573;-71
2021/11/30 01:45:57;;;;;;;20.43;18.83;;;3.80;99.90;;;;;;5083960;28;20552;-70
2021/11/30 01:51:05;;;;;;;21.70;19.90;;;3.80;99.90;;;;;;5047145;28;20501;-70
2021/11/30 01:53:32;;;;;;;21.13;19.43;;;3.90;99.90;;;;;;5077914;28;20471;-70
2021/11/30 01:56:00;;;;;;;20.93;19.30;;;3.90;99.90;;;;;;5080642;28;20496;-70
2021/11/30 01:58:27;;;;;;;21.67;19.97;;;3.90;99.90;;;;;;5080406;28;20474;-70
2021/11/30 02:00:54;;;;;;;21.97;20.00;;;3.90;99.90;;;;;;5085223;28;20463;-70
2021/11/30 02:03:21;;;;;;;24.67;22.03;;;3.90;99.90;;;;;;5080735;28;20462;-70
2021/11/30 02:05:49;;;;;;;20.23;18.93;;;3.90;99.90;;;;;;5080961;28;20463;-69
2021/11/30 02:08:18;;;;;;;23.17;20.73;;;3.90;99.90;;;;;;5085229;28;20487;-70
2021/11/30 02:10:45;;;;;;;22.90;20.83;;;3.80;99.90;;;;;;5077121;28;20473;-69
2021/11/30 02:13:13;;;;;;;21.17;19.67;;;3.80;99.90;;;;;;5087656;28;20454;-70
2021/11/30 02:15:44;;;;;;;21.97;20.00;;;3.80;99.90;;;;;;5082714;28;20461;-69
2021/11/30 02:18:19;;;;;;;21.47;19.87;;;3.90;99.90;;;;;;5078322;28;20573;-69
2021/11/30 02:20:48;;;;;;;21.50;19.87;;;3.80;99.90;;;;;;5078446;28;20453;-69
2021/11/30 02:23:29;;;;;;;21.30;19.73;;;3.70;99.90;;;;;;5079713;28;20455;-69
2021/11/30 02:25:56;;;;;;;21.20;19.60;;;3.80;99.90;;;;;;5084675;28;20455;-70
2021/11/30 02:28:23;;;;;;;20.80;19.30;;;3.80;99.90;;;;;;5083935;28;20839;-69
2021/11/30 02:30:49;;;;;;;21.27;19.40;;;3.80;99.90;;;;;;5083715;28;20463;-69
2021/11/30 02:33:16;;;;;;;20.60;19.30;;;3.70;99.90;;;;;;5074670;28;21203;-69
2021/11/30 02:35:43;;;;;;;24.50;22.53;;;3.60;99.90;;;;;;5075806;28;20885;-69
2021/11/30 02:38:11;;;;;;;29.90;27.33;;;3.60;99.90;;;;;;5075807;28;20454;-70
2021/11/30 02:40:39;;;;;;;31.67;28.27;;;3.60;99.90;;;;;;5084546;28;20985;-70
2021/11/30 02:43:06;;;;;;;30.33;27.97;;;3.50;99.90;;;;;;5085369;28;20489;-71
2021/11/30 02:45:33;;;;;;;29.30;26.90;;;3.50;99.90;;;;;;5076948;28;20477;-70
2021/11/30 02:48:01;;;;;;;30.93;28.30;;;3.50;99.90;;;;;;5077393;28;21049;-71
2021/11/30 02:50:28;;;;;;;28.60;25.93;;;3.40;99.90;;;;;;5082005;28;20548;-72
2021/11/30 02:52:56;;;;;;;29.00;26.60;;;3.40;99.90;;;;;;5079114;28;20458;-72
2021/11/30 02:55:24;;;;;;;30.73;27.03;;;3.40;99.90;;;;;;5080945;28;20458;-71
2021/11/30 02:57:51;;;;;;;28.60;26.23;;;3.30;99.90;;;;;;5077574;28;20454;-71
2021/11/30 03:00:18;;;;;;;29.10;27.00;;;3.30;99.90;;;;;;5081867;28;20492;-71
2021/11/30 03:02:45;;;;;;;30.23;27.13;;;3.30;99.90;;;;;;5082235;28;20457;-71
2021/11/30 03:05:12;;;;;;;28.83;26.33;;;3.30;99.90;;;;;;5079950;28;20454;-71
2021/11/30 03:07:40;;;;;;;28.80;26.00;;;3.30;99.90;;;;;;5084821;28;20502;-71
2021/11/30 03:10:10;;;;;;;28.43;25.83;;;3.30;99.90;;;;;;5083671;28;20469;-71
2021/11/30 03:12:39;;;;;;;29.57;27.03;;;3.30;99.90;;;;;;5073373;28;21061;-70
2021/11/30 03:15:08;;;;;;;27.63;25.77;;;3.30;99.90;;;;;;5080726;28;20944;-71
2021/11/30 03:17:36;;;;;;;27.40;25.37;;;3.20;99.90;;;;;;5081640;28;20474;-71
2021/11/30 03:20:04;;;;;;;30.20;28.00;;;3.20;99.90;;;;;;5081439;28;20964;-71
2021/11/30 03:22:31;;;;;;;27.73;25.63;;;3.20;99.90;;;;;;5080043;28;20804;-72
2021/11/30 03:24:58;;;;;;;28.80;26.70;;;3.20;99.90;;;;;;5078881;28;20461;-72
2021/11/30 03:27:25;;;;;;;29.63;27.30;;;3.20;99.90;;;;;;5084823;28;20457;-71
2021/11/30 03:29:53;;;;;;;30.47;27.90;;;3.30;99.90;;;;;;5079986;28;20489;-72
2021/11/30 03:35:01;;;;;;;28.13;26.23;;;3.30;99.90;;;;;;5073815;28;20854;-71
2021/11/30 03:37:28;;;;;;;27.07;24.73;;;3.30;99.90;;;;;;5082477;28;20458;-71
2021/11/30 03:39:57;;;;;;;29.50;27.20;;;3.30;99.90;;;;;;5077279;28;20466;-71
2021/11/30 03:42:24;;;;;;;28.30;26.23;;;3.30;99.90;;;;;;5086125;28;20462;-71
2021/11/30 03:44:53;;;;;;;27.77;25.90;;;3.30;99.90;;;;;;5082235;28;20500;-71
2021/11/30 03:47:22;;;;;;;30.17;27.87;;;3.30;99.90;;;;;;5080610;28;21340;-72
2021/11/30 03:49:49;;;;;;;28.33;26.37;;;3.40;99.90;;;;;;5081918;28;20588;-71
2021/11/30 03:52:16;;;;;;;29.50;27.33;;;3.50;99.90;;;;;;5078630;28;20552;-72
2021/11/30 03:54:43;;;;;;;30.77;28.10;;;3.50;99.90;;;;;;5083408;28;20549;-72
2021/11/30 03:57:10;;;;;;;26.30;24.57;;;3.60;99.90;;;;;;5076728;28;20480;-71
2021/11/30 03:59:37;;;;;;;27.83;26.07;;;3.60;99.90;;;;;;5078679;28;20806;-71
2021/11/30 04:02:05;;;;;;;28.13;25.37;;;3.60;99.90;;;;;;5081345;28;20469;-71
2021/11/30 04:04:35;;;;;;;27.40;25.43;;;3.70;99.90;;;;;;5082201;28;20469;-70
2021/11/30 04:07:02;;;;;;;28.00;26.07;;;3.70;99.90;;;;;;5086733;28;20459;-72
2021/11/30 04:09:29;;;;;;;27.73;25.23;;;3.70;99.90;;;;;;5083153;28;21031;-72
2021/11/30 04:11:56;;;;;;;27.80;25.83;;;3.80;99.90;;;;;;5079639;28;20462;-71
2021/11/30 04:14:23;;;;;;;27.13;25.23;;;3.70;99.90;;;;;;5077224;28;20649;-71
2021/11/30 04:16:50;;;;;;;26.20;24.40;;;3.80;99.90;;;;;;5073621;28;20471;-72
2021/11/30 04:19:18;;;;;;;27.23;25.20;;;3.80;99.90;;;;;;5084711;28;20454;-71
2021/11/30 04:21:45;;;;;;;27.83;26.00;;;3.80;99.90;;;;;;5078841;28;20472;-73
2021/11/30 04:24:12;;;;;;;25.00;23.10;;;3.90;99.90;;;;;;5078903;28;20470;-72
2021/11/30 04:26:40;;;;;;;25.43;23.63;;;3.90;99.90;;;;;;5080432;28;20509;-72
2021/11/30 04:29:07;;;;;;;27.40;25.40;;;3.90;99.90;;;;;;5081100;28;20489;-71
2021/11/30 04:31:35;;;;;;;27.53;25.53;;;3.90;99.90;;;;;;5081435;28;20484;-72
2021/11/30 04:34:03;;;;;;;27.73;25.67;;;4.00;99.90;;;;;;5081060;28;20453;-73
2021/11/30 04:36:31;;;;;;;26.77;24.87;;;4.10;99.90;;;;;;5084995;28;20535;-71
2021/11/30 04:38:58;;;;;;;27.47;25.77;;;4.10;99.90;;;;;;5081862;28;20457;-71
2021/11/30 04:41:25;;;;;;;27.00;25.20;;;4.20;99.90;;;;;;5081647;28;21007;-72
2021/11/30 04:43:52;;;;;;;26.33;24.30;;;4.30;99.90;;;;;;5082380;28;20504;-71
2021/11/30 04:46:22;;;;;;;28.60;26.47;;;4.30;99.90;;;;;;5084339;28;20465;-72
2021/11/30 04:48:56;;;;;;;27.40;25.60;;;4.30;99.90;;;;;;5084510;28;20617;-72
2021/11/30 04:51:23;;;;;;;29.73;27.53;;;4.40;99.90;;;;;;5087873;28;20458;-71
2021/11/30 04:53:51;;;;;;;27.10;25.03;;;4.40;99.90;;;;;;5085296;28;20556;-72
2021/11/30 04:56:19;;;;;;;26.50;24.77;;;4.40;99.90;;;;;;5081612;28;20483;-72
2021/11/30 04:58:47;;;;;;;26.57;24.80;;;4.40;99.90;;;;;;5082118;28;20459;-71
2021/11/30 05:01:16;;;;;;;27.93;26.03;;;4.50;99.90;;;;;;5074319;28;20538;-72
2021/11/30 05:03:44;;;;;;;27.13;25.07;;;4.50;99.90;;;;;;5082492;28;20552;-73
2021/11/30 05:06:12;;;;;;;30.10;28.10;;;4.50;99.90;;;;;;5080133;28;20465;-73
2021/11/30 05:08:39;;;;;;;26.27;24.50;;;4.50;99.90;;;;;;5078913;28;20487;-74
2021/11/30 05:11:08;;;;;;;26.70;24.70;;;4.50;99.90;;;;;;5081708;28;20454;-73
2021/11/30 05:13:35;;;;;;;26.67;24.77;;;4.50;99.90;;;;;;5079981;28;20447;-71
2021/11/30 05:16:02;;;;;;;28.73;26.43;;;4.60;99.90;;;;;;5088818;28;20450;-72
2021/11/30 05:18:29;;;;;;;30.30;27.63;;;4.60;99.90;;;;;;5073703;28;20833;-73
2021/11/30 05:20:59;;;;;;;29.43;27.33;;;4.60;99.90;;;;;;5081390;28;20462;-72
2021/11/30 05:23:28;;;;;;;28.73;26.43;;;4.70;99.90;;;;;;5077927;28;20533;-72
2021/11/30 05:25:55;;;;;;;31.17;28.90;;;4.70;99.90;;;;;;5082732;28;20468;-71
2021/11/30 05:28:24;;;;;;;30.60;28.30;;;4.70;99.90;;;;;;5083030;28;20520;-72
2021/11/30 05:30:51;;;;;;;28.50;26.50;;;4.80;99.90;;;;;;5074378;28;20462;-73
2021/11/30 05:33:18;;;;;;;29.03;26.90;;;4.80;99.90;;;;;;5077841;28;20497;-72
2021/11/30 05:35:45;;;;;;;30.90;28.30;;;4.90;99.90;;;;;;5077721;28;20489;-72
2021/11/30 05:38:12;;;;;;;29.77;27.60;;;4.90;99.90;;;;;;5080393;28;21213;-71
2021/11/30 05:40:40;;;;;;;32.07;29.33;;;4.90;99.90;;;;;;5079217;28;20454;-72
2021/11/30 05:43:08;;;;;;;27.10;25.17;;;4.90;99.90;;;;;;5082456;28;20489;-74
2021/11/30 05:45:36;;;;;;;27.37;25.47;;;4.90;99.90;;;;;;5084699;28;20462;-74
2021/11/30 05:48:03;;;;;;;29.43;27.07;;;4.90;99.90;;;;;;5078724;28;20463;-73
2021/11/30 05:50:30;;;;;;;31.30;28.63;;;5.00;99.90;;;;;;5077328;28;20533;-73
2021/11/30 05:52:57;;;;;;;28.47;26.47;;;5.00;99.90;;;;;;5079019;28;20520;-73
2021/11/30 05:55:24;;;;;;;31.33;28.80;;;5.00;99.90;;;;;;5087427;28;20464;-74
2021/11/30 05:57:52;;;;;;;30.83;28.47;;;5.10;99.90;;;;;;5080114;28;20493;-72
2021/11/30 06:00:20;;;;;;;29.10;26.80;;;5.10;99.90;;;;;;5080336;28;20455;-72
2021/11/30 06:05:34;;;;;;;32.00;29.30;;;5.10;99.90;;;;;;5083704;28;20485;-73
2021/11/30 06:08:03;;;;;;;33.80;30.90;;;5.10;99.90;;;;;;5078015;28;20540;-71
2021/11/30 06:10:30;;;;;;;30.60;28.20;;;5.20;99.90;;;;;;5083611;28;20486;-73
2021/11/30 06:12:57;;;;;;;30.83;28.23;;;5.20;99.90;;;;;;5088072;28;20581;-72
2021/11/30 06:15:25;;;;;;;31.40;28.60;;;5.20;99.90;;;;;;5080532;28;20793;-73
2021/11/30 06:17:53;;;;;;;29.20;27.10;;;5.30;99.90;;;;;;5077227;28;20458;-71
2021/11/30 06:20:21;;;;;;;29.13;26.73;;;5.30;99.90;;;;;;5076748;28;20944;-71
2021/11/30 06:22:48;;;;;;;30.07;27.57;;;5.30;99.90;;;;;;5084119;28;20931;-72
2021/11/30 06:25:15;;;;;;;30.00;27.47;;;5.30;99.90;;;;;;5078513;28;20462;-72
2021/11/30 06:27:42;;;;;;;27.40;25.40;;;5.40;99.90;;;;;;5077227;28;20973;-73
2021/11/30 06:30:10;;;;;;;30.03;27.40;;;5.40;99.90;;;;;;5081029;28;20842;-72
2021/11/30 06:32:37;;;;;;;31.67;29.07;;;5.40;99.90;;;;;;5083667;28;20453;-73
2021/11/30 06:35:07;;;;;;;32.20;29.70;;;5.50;99.90;;;;;;5076163;28;20455;-72
2021/11/30 06:37:34;;;;;;;32.80;30.20;;;5.50;99.90;;;;;;5085868;28;20461;-72
2021/11/30 06:40:01;;;;;;;31.10;28.60;;;5.60;99.90;;;;;;5083808;28;20473;-71
2021/11/30 06:42:28;;;;;;;32.70;30.10;;;5.60;99.90;;;;;;5078597;28;20458;-73
2021/11/30 06:44:55;;;;;;;28.90;26.70;;;5.60;99.90;;;;;;5080261;28;20893;-73
2021/11/30 06:47:22;;;;;;;30.40;28.00;;;5.60;99.90;;;;;;5078373;28;20459;-71
2021/11/30 06:49:49;;;;;;;33.10;29.50;;;5.70;99.90;;;;;;5085336;28;20495;-71
2021/11/30 06:52:17;;;;;;;33.50;30.90;;;5.70;99.90;;;;;;5081628;28;21013;-73
2021/11/30 06:54:46;;;;;;;33.33;30.43;;;5.70;99.90;;;;;;5080333;28;20546;-72
2021/11/30 06:57:14;;;;;;;34.87;31.63;;;5.80;99.90;;;;;;5083689;28;20469;-71
2021/11/30 06:59:42;;;;;;;32.20;29.73;;;5.80;99.90;;;;;;5081802;28;20463;-72
2021/11/30 07:02:10;;;;;;;31.37;28.97;;;5.80;99.90;;;;;;5081677;28;20473;-72
2021/11/30 07:04:40;;;;;;;33.03;30.40;;;5.80;99.90;;;;;;5073714;28;20490;-72
2021/11/30 07:07:18;;;;;;;32.03;29.63;;;5.90;99.90;;;;;;5080885;28;20466;-72
2021/11/30 07:09:58;;;;;;;30.97;28.47;;;5.90;99.90;;;;;;5075817;28;20488;-71
2021/11/30 07:12:46;;;;;;;31.93;29.27;;;5.90;99.90;;;;;;5077165;28;20468;-69
2021/11/30 07:15:13;;;;;;;33.40;30.80;;;5.90;99.90;;;;;;5077925;28;20466;-70
2021/11/30 07:17:40;;;;;;;31.43;28.87;;;5.90;99.90;;;;;;5083888;28;20881;-71
2021/11/30 07:20:07;;;;;;;31.70;29.10;;;5.90;99.90;;;;;;5084893;28;20497;-69
2021/11/30 07:22:35;;;;;;;32.73;29.97;;;5.90;99.90;;;;;;5072949;28;20541;-69
2021/11/30 07:25:04;;;;;;;32.57;29.27;;;5.90;99.90;;;;;;5079143;28;20876;-68
2021/11/30 07:27:31;;;;;;;32.13;29.60;;;5.90;99.90;;;;;;5076005;28;20517;-71
2021/11/30 07:29:58;;;;;;;35.27;32.17;;;5.90;99.90;;;;;;5071574;28;20561;-69
2021/11/30 07:32:24;;;;;;;30.30;27.97;;;6.00;99.90;;;;;;5083238;28;20469;-71
2021/11/30 07:34:51;;;;;;;34.37;31.40;;;6.00;99.90;;;;;;5079287;28;20454;-70
2021/11/30 07:37:18;;;;;;;30.63;28.37;;;6.00;99.90;;;;;;5077578;28;20515;-72
2021/11/30 07:39:45;;;;;;;34.93;31.97;;;6.00;99.90;;;;;;5077132;28;20463;-70
2021/11/30 07:42:13;;;;;;;31.87;29.37;;;6.00;99.90;;;;;;5081630;28;20827;-71
2021/11/30 07:44:40;;;;;;;34.33;31.33;;;6.10;99.90;;;;;;5080016;28;20482;-71
2021/11/30 07:47:07;;;;;;;29.90;27.60;;;6.00;99.90;;;;;;5078857;28;20465;-71
2021/11/30 07:49:33;;;;;;;30.93;28.33;;;6.10;99.90;;;;;;5081552;28;20830;-72
2021/11/30 07:52:00;;;;;;;32.53;29.70;;;6.10;99.90;;;;;;5078081;28;20947;-71
2021/11/30 07:54:29;;;;;;;29.97;27.80;;;6.20;99.90;;;;;;5077148;28;20462;-71
2021/11/30 07:56:56;;;;;;;32.80;30.10;;;6.20;99.90;;;;;;5074627;28;20598;-71
2021/11/30 07:59:24;;;;;;;32.10;29.60;;;6.20;99.90;;;;;;5078352;28;20454;-71
2021/11/30 08:01:51;;;;;;;30.97;28.10;;;6.20;99.90;;;;;;5074616;28;20471;-69
2021/11/30 08:04:17;;;;;;;28.80;26.60;;;6.20;99.90;;;;;;5073623;28;20464;-70
2021/11/30 08:06:44;;;;;;;31.33;28.87;;;6.30;99.90;;;;;;5078105;28;20462;-70
2021/11/30 08:09:12;;;;;;;31.60;29.07;;;6.30;99.90;;;;;;5081537;28;20586;-71
2021/11/30 08:11:38;;;;;;;29.13;26.90;;;6.30;99.90;;;;;;5077644;28;20480;-69
2021/11/30 08:14:05;;;;;;;33.87;31.10;;;6.30;99.90;;;;;;5083731;28;20461;-71
2021/11/30 08:16:34;;;;;;;29.63;27.50;;;6.40;99.90;;;;;;5084471;28;21138;-71
2021/11/30 08:19:00;;;;;;;33.47;30.93;;;6.40;99.90;;;;;;5080013;28;20468;-70
2021/11/30 08:21:29;;;;;;;35.07;32.17;;;6.40;99.90;;;;;;5075637;28;20796;-71
2021/11/30 08:23:56;;;;;;;34.03;31.43;;;6.40;99.90;;;;;;5084260;28;20461;-71
2021/11/30 08:26:23;;;;;;;34.20;31.60;;;6.50;99.90;;;;;;5075563;28;20459;-70
2021/11/30 08:28:49;;;;;;;34.10;31.40;;;6.50;99.90;;;;;;5082516;28;20557;-69
2021/11/30 08:31:16;;;;;;;32.90;30.30;;;6.50;99.90;;;;;;5083922;28;20497;-71
2021/11/30 08:33:44;;;;;;;34.50;31.50;;;6.50;99.90;;;;;;5085170;28;20470;-71
2021/11/30 08:36:11;;;;;;;30.80;28.50;;;6.50;99.90;;;;;;5083711;28;21006;-72
2021/11/30 08:38:38;;;;;;;34.70;31.90;;;6.50;99.90;;;;;;5080360;28;20841;-72
2021/11/30 08:41:05;;;;;;;32.33;29.93;;;6.60;99.90;;;;;;5079528;28;20459;-73
2021/11/30 08:43:32;;;;;;;31.47;28.90;;;6.60;99.90;;;;;;5082046;28;20486;-70
2021/11/30 08:45:59;;;;;;;30.13;27.73;;;6.70;99.90;;;;;;5080855;28;20496;-70
2021/11/30 08:48:26;;;;;;;32.57;29.77;;;6.70;99.90;;;;;;5085845;28;20541;-72
2021/11/30 08:50:56;;;;;;;33.60;30.97;;;6.70;99.90;;;;;;5084119;28;20501;-71
2021/11/30 08:53:24;;;;;;;30.93;28.63;;;6.80;99.90;;;;;;5087399;28;20515;-70
2021/11/30 08:55:52;;;;;;;33.83;30.83;;;6.80;99.90;;;;;;5081181;28;20468;-70
2021/11/30 08:58:19;;;;;;;32.13;29.57;;;6.90;99.90;;;;;;5079145;28;20466;-71
2021/11/30 09:00:46;;;;;;;32.30;29.80;;;7.00;99.90;;;;;;5085191;28;20493;-72
2021/11/30 09:03:12;;;;;;;29.13;27.03;;;7.00;99.90;;;;;;5077591;28;20505;-70
2021/11/30 09:05:39;;;;;;;31.93;29.37;;;7.10;99.90;;;;;;5092394;28;20455;-70
2021/11/30 09:08:08;;;;;;;32.80;30.20;;;7.10;99.90;;;;;;5084957;28;20453;-70
2021/11/30 09:10:35;;;;;;;29.37;27.07;;;7.00;99.90;;;;;;5079327;28;20904;-71
2021/11/30 09:13:02;;;;;;;33.30;30.43;;;7.10;99.90;;;;;;5080924;28;20454;-71
2021/11/30 09:15:29;;;;;;;33.07;30.37;;;7.10;99.90;;;;;;5074023;28;20506;-70
2021/11/30 09:17:57;;;;;;;33.20;30.43;;;7.10;99.90;;;;;;5083383;28;20458;-72
2021/11/30 09:20:25;;;;;;;30.40;27.97;;;7.20;99.90;;;;;;5082909;28;20446;-69
2021/11/30 09:22:53;;;;;;;31.40;28.80;;;7.10;99.90;;;;;;5074899;28;20791;-71
2021/11/30 09:25:23;;;;;;;31.03;28.77;;;7.20;99.90;;;;;;5075523;28;20764;-72
2021/11/30 09:27:51;;;;;;;30.50;28.20;;;7.20;99.90;;;;;;5077417;28;20479;-71
2021/11/30 09:30:20;;;;;;;32.47;29.67;;;7.20;99.90;;;;;;5083612;28;22542;-72
2021/11/30 09:32:48;;;;;;;30.67;28.13;;;7.30;99.90;;;;;;5078499;28;20465;-69
2021/11/30 09:35:17;;;;;;;29.73;27.23;;;7.30;99.90;;;;;;5079020;28;20550;-71
2021/11/30 09:37:44;;;;;;;30.30;27.57;;;7.30;99.90;;;;;;5077567;28;20930;-71
2021/11/30 09:40:13;;;;;;;30.73;28.50;;;7.30;99.90;;;;;;5082808;28;20468;-71
2021/11/30 09:42:44;;;;;;;30.10;27.90;;;7.40;99.90;;;;;;5083354;28;20470;-70
2021/11/30 09:45:11;;;;;;;32.83;30.33;;;7.40;99.90;;;;;;5079515;28;20840;-70
2021/11/30 09:47:39;;;;;;;30.03;27.77;;;7.40;99.90;;;;;;5083295;28;20467;-70
2021/11/30 09:50:10;;;;;;;30.40;28.00;;;7.40;99.90;;;;;;5085619;28;20573;-69
2021/11/30 09:52:37;;;;;;;30.60;27.93;;;7.50;99.90;;;;;;5074982;28;20586;-71
2021/11/30 09:55:05;;;;;;;29.50;27.30;;;7.50;99.90;;;;;;5080376;28;20786;-71
2021/11/30 09:57:32;;;;;;;30.30;28.10;;;7.60;99.90;;;;;;5076166;28;20463;-70
2021/11/30 10:00:03;;;;;;;30.33;27.97;;;7.60;99.90;;;;;;5083467;28;20460;-69
2021/11/30 10:02:30;;;;;;;29.90;27.80;;;7.60;99.90;;;;;;5075241;28;20455;-70
2021/11/30 10:04:57;;;;;;;30.87;28.57;;;7.60;99.90;;;;;;5071691;28;20471;-71
2021/11/30 10:07:37;;;;;;;29.43;27.33;;;7.70;99.90;;;;;;5072058;28;20459;-70
2021/11/30 10:10:15;;;;;;;29.27;27.17;;;7.70;99.90;;;;;;5076552;28;20713;-73
2021/11/30 10:12:43;;;;;;;28.47;26.47;;;7.80;99.90;;;;;;5076114;28;20509;-72
2021/11/30 10:15:13;;;;;;;29.00;26.80;;;7.80;99.90;;;;;;5080434;28;20845;-70
2021/11/30 10:17:40;;;;;;;29.23;27.03;;;7.80;99.90;;;;;;5073838;28;20458;-72
2021/11/30 10:20:11;;;;;;;28.10;26.03;;;7.80;99.90;;;;;;5077828;28;20476;-72
2021/11/30 10:22:48;;;;;;;26.70;24.70;;;7.90;99.90;;;;;;5071385;28;20466;-71
2021/11/30 10:25:20;;;;;;;28.03;25.93;;;7.90;99.90;;;;;;5072413;28;20466;-71
2021/11/30 10:27:50;;;;;;;27.67;25.60;;;7.90;99.90;;;;;;5080365;28;20470;-70
2021/11/30 10:30:21;;;;;;;27.13;25.23;;;7.90;99.90;;;;;;5074356;28;21037;-70
2021/11/30 10:32:50;;;;;;;25.57;23.90;;;7.90;99.90;;;;;;5075080;28;20551;-71
2021/11/30 10:35:19;;;;;;;27.17;25.30;;;7.90;99.90;;;;;;5066678;28;20853;-71
2021/11/30 10:37:47;;;;;;;28.10;26.10;;;7.90;99.90;;;;;;5068828;28;20481;-72
2021/11/30 10:40:17;;;;;;;27.17;25.37;;;7.90;99.90;;;;;;5073917;28;20462;-72
2021/11/30 10:42:50;;;;;;;28.80;26.80;;;8.00;99.90;;;;;;5071469;28;20459;-71
2021/11/30 10:45:30;;;;;;;29.10;26.97;;;8.00;99.90;;;;;;5074625;28;20475;-71
2021/11/30 10:48:07;;;;;;;28.70;26.50;;;8.00;99.90;;;;;;5071336;28;20461;-72
2021/11/30 10:50:39;;;;;;;28.13;26.10;;;8.10;99.90;;;;;;5077273;28;20722;-71
2021/11/30 10:53:16;;;;;;;25.83;24.03;;;8.10;99.90;;;;;;5073008;28;20455;-72
2021/11/30 10:55:47;;;;;;;28.60;26.50;;;8.10;99.90;;;;;;5078547;28;20463;-73
2021/11/30 10:58:14;;;;;;;26.70;25.00;;;8.10;99.90;;;;;;5075970;28;21270;-71
2021/11/30 11:00:42;;;;;;;27.00;25.00;;;8.10;99.90;;;;;;5078194;28;20459;-72
2021/11/30 11:03:16;;;;;;;26.60;24.77;;;8.10;99.90;;;;;;5068780;28;21096;-71
2021/11/30 11:05:44;;;;;;;27.97;26.00;;;8.10;99.90;;;;;;5084391;28;20502;-70
2021/11/30 11:08:14;;;;;;;26.93;25.00;;;8.20;99.90;;;;;;5074618;28;20512;-74
2021/11/30 11:10:43;;;;;;;27.00;25.30;;;8.20;99.90;;;;;;5073356;28;21022;-72
2021/11/30 11:13:27;;;;;;;27.27;25.37;;;8.20;99.90;;;;;;5078906;28;20458;-72
2021/11/30 11:15:57;;;;;;;26.80;24.90;;;8.20;99.90;;;;;;5081394;28;21252;-71
2021/11/30 11:18:27;;;;;;;27.17;25.37;;;8.30;99.90;;;;;;5072202;28;21039;-70
2021/11/30 11:21:13;;;;;;;26.27;24.37;;;8.30;99.90;;;;;;5071963;28;20471;-71
2021/11/30 11:23:43;;;;;;;27.83;25.70;;;8.30;99.90;;;;;;5071638;28;20462;-71
2021/11/30 11:26:20;;;;;;;27.03;25.23;;;8.30;99.90;;;;;;5077141;28;20474;-71
2021/11/30 11:28:47;;;;;;;27.63;25.63;;;8.30;99.90;;;;;;5070405;28;20458;-71
2021/11/30 11:31:16;;;;;;;28.60;26.30;;;8.20;99.90;;;;;;5078827;28;20862;-71
2021/11/30 11:33:43;;;;;;;28.13;26.00;;;8.30;99.90;;;;;;5075540;28;20473;-70
2021/11/30 11:36:11;;;;;;;26.63;24.80;;;8.30;99.90;;;;;;5072518;28;20482;-70
2021/11/30 11:38:39;;;;;;;25.73;24.00;;;8.30;99.90;;;;;;5073521;28;20497;-70
2021/11/30 11:41:08;;;;;;;27.97;25.63;;;8.30;99.90;;;;;;5077547;28;20454;-72
2021/11/30 11:43:37;;;;;;;28.93;26.63;;;8.30;99.90;;;;;;5075515;28;20499;-71
2021/11/30 11:46:07;;;;;;;30.30;28.03;;;8.30;99.90;;;;;;5077380;28;20781;-72
2021/11/30 11:48:35;;;;;;;30.93;28.53;;;8.40;99.90;;;;;;5074834;28;20468;-71
2021/11/30 11:51:04;;;;;;;27.80;25.83;;;8.40;99.90;;;;;;5070244;28;20513;-72
2021/11/30 11:53:33;;;;;;;30.10;27.80;;;8.40;99.90;;;;;;5071681;28;20463;-71
2021/11/30 11:56:18;;;;;;;30.23;27.80;;;8.40;99.90;;;;;;5072251;28;20828;-70
2021/11/30 11:58:49;;;;;;;32.77;29.90;;;8.40;99.90;;;;;;5075359;28;20461;-72
2021/11/30 12:01:20;;;;;;;33.00;30.37;;;8.50;99.90;;;;;;5073179;28;20463;-72
2021/11/30 12:03:56;;;;;;;31.33;29.03;;;8.50;99.90;;;;;;5066388;28;20465;-71
2021/11/30 12:06:25;;;;;;;34.00;31.40;;;8.50;99.90;;;;;;5076676;28;20951;-70
2021/11/30 12:09:11;;;;;;;33.03;30.20;;;8.50;99.90;;;;;;5076431;28;20470;-72
2021/11/30 12:11:38;;;;;;;34.07;31.30;;;8.50;99.90;;;;;;5074162;28;20507;-72
2021/11/30 12:14:18;;;;;;;34.33;31.67;;;8.60;99.90;;;;;;5074895;28;20476;-71
2021/11/30 12:17:09;;;;;;;34.57;31.43;;;8.50;99.90;;;;;;5073668;28;20462;-70
2021/11/30 12:19:40;;;;;;;34.60;31.77;;;8.50;99.90;;;;;;5074413;28;20474;-70
2021/11/30 12:22:08;;;;;;;31.63;29.03;;;8.60;99.90;;;;;;5069123;28;20877;-71
2021/11/30 12:24:36;;;;;;;31.90;29.43;;;8.60;99.90;;;;;;5074242;28;20472;-72
2021/11/30 12:27:42;;;;;;;31.93;29.53;;;8.60;99.90;;;;;;5079239;28;20483;-71
2021/11/30 12:30:44;;;;;;;34.40;31.30;;;8.60;99.90;;;;;;5074480;28;20523;-70
2021/11/30 12:33:18;;;;;;;30.83;28.40;;;8.60;99.90;;;;;;5073661;28;20458;-70
2021/11/30 12:35:53;;;;;;;33.77;31.17;;;8.60;99.90;;;;;;5072921;28;20572;-70
2021/11/30 12:38:22;;;;;;;34.13;31.43;;;8.60;99.90;;;;;;5074045;28;20456;-72
2021/11/30 12:40:50;;;;;;;32.30;29.93;;;8.60;99.90;;;;;;5071835;28;20472;-71
2021/11/30 12:43:22;;;;;;;33.53;30.80;;;8.60;99.90;;;;;;5073661;28;21023;-70
2021/11/30 12:45:53;;;;;;;33.83;31.10;;;8.60;99.90;;;;;;5074330;28;20461;-72
2021/11/30 12:48:23;;;;;;;33.47;30.87;;;8.60;99.90;;;;;;5073286;28;20463;-69
2021/11/30 12:50:58;;;;;;;35.17;32.17;;;8.60;99.90;;;;;;5068039;28;20558;-72
2021/11/30 12:53:43;;;;;;;33.37;30.80;;;8.60;99.90;;;;;;5067449;28;20539;-72